createdAt,value
2023-04-26T00:00:36.590Z,12.98
2023-04-26T00:03:08.964Z,12.93
2023-04-26T00:05:42.323Z,12.85
2023-04-26T00:08:15.549Z,12.80
2023-04-26T00:10:47.851Z,12.74
2023-04-26T00:13:20.061Z,12.67
2023-04-26T00:15:52.223Z,12.61
2023-04-26T00:18:24.284Z,12.61
2023-04-26T00:20:56.610Z,12.57
2023-04-26T00:23:28.949Z,12.55
2023-04-26T00:26:01.085Z,12.52
2023-04-26T00:28:33.251Z,12.52
2023-04-26T00:31:05.453Z,12.48
2023-04-26T00:33:37.647Z,12.42
2023-04-26T00:36:10.166Z,12.37
2023-04-26T00:38:42.327Z,12.34
2023-04-26T00:41:14.909Z,12.32
2023-04-26T00:43:47.055Z,12.29
2023-04-26T00:46:19.112Z,12.26
2023-04-26T00:48:52.228Z,12.27
2023-04-26T00:51:24.762Z,12.27
2023-04-26T00:53:57.441Z,12.29
2023-04-26T00:56:30.702Z,12.29
2023-04-26T00:59:03.756Z,12.29
2023-04-26T01:01:36.657Z,12.26
2023-04-26T01:04:09.088Z,12.23
2023-04-26T01:06:42.131Z,12.25
2023-04-26T01:09:16.280Z,12.23
2023-04-26T01:11:49.275Z,12.24
2023-04-26T01:14:22.106Z,12.26
2023-04-26T01:16:54.146Z,12.28
2023-04-26T01:19:26.346Z,12.30
2023-04-26T01:21:58.609Z,12.35
2023-04-26T01:24:30.791Z,12.35
2023-04-26T01:27:04.261Z,12.35
2023-04-26T01:29:36.846Z,12.33
2023-04-26T01:32:08.937Z,12.33
2023-04-26T01:37:23.331Z,12.39
2023-04-26T01:39:55.959Z,12.37
2023-04-26T01:42:28.009Z,12.36
2023-04-26T01:45:00.131Z,12.35
2023-04-26T01:47:34.547Z,12.36
2023-04-26T01:50:07.580Z,12.34
2023-04-26T01:52:39.888Z,12.33
2023-04-26T01:55:12.107Z,12.29
2023-04-26T01:57:44.222Z,12.22
2023-04-26T02:00:17.259Z,12.18
2023-04-26T02:02:51.637Z,12.15
2023-04-26T02:05:24.573Z,12.11
2023-04-26T02:07:56.801Z,12.14
2023-04-26T02:10:28.887Z,12.13
2023-04-26T02:13:01.158Z,12.08
2023-04-26T02:15:33.532Z,12.06
2023-04-26T02:18:06.593Z,12.05
2023-04-26T02:20:43.378Z,12.04
2023-04-26T02:23:15.741Z,12.01
2023-04-26T02:25:49.711Z,11.96
2023-04-26T02:28:22.050Z,11.95
2023-04-26T02:30:54.445Z,11.95
2023-04-26T02:33:26.655Z,11.91
2023-04-26T02:35:58.809Z,11.88
2023-04-26T02:38:30.990Z,11.88
2023-04-26T02:41:04.082Z,11.85
2023-04-26T02:43:37.344Z,11.83
2023-04-26T02:46:10.001Z,11.82
2023-04-26T02:48:42.225Z,11.83
2023-04-26T02:51:14.717Z,11.84
2023-04-26T02:53:46.954Z,11.86
2023-04-26T02:56:19.687Z,11.87
2023-04-26T02:58:52.004Z,11.84
2023-04-26T03:01:24.447Z,11.83
2023-04-26T03:03:58.698Z,11.80
2023-04-26T03:06:30.424Z,11.81
2023-04-26T03:09:05.645Z,11.79
2023-04-26T03:11:38.000Z,11.78
2023-04-26T03:14:10.141Z,11.76
2023-04-26T03:16:46.118Z,11.75
2023-04-26T03:19:18.818Z,11.71
2023-04-26T03:21:51.204Z,11.69
2023-04-26T03:24:23.858Z,11.71
2023-04-26T03:26:56.001Z,11.69
2023-04-26T03:29:28.277Z,11.71
2023-04-26T03:32:00.680Z,11.73
2023-04-26T03:34:32.911Z,11.73
2023-04-26T03:37:05.331Z,11.74
2023-04-26T03:39:37.450Z,11.77
2023-04-26T03:42:10.478Z,11.78
2023-04-26T03:44:43.091Z,11.82
2023-04-26T03:47:17.035Z,11.80
2023-04-26T03:49:49.152Z,11.80
2023-04-26T03:52:21.412Z,11.82
2023-04-26T03:54:53.655Z,11.86
2023-04-26T03:57:25.825Z,11.91
2023-04-26T03:59:58.354Z,11.98
2023-04-26T04:02:32.037Z,11.99
2023-04-26T04:05:04.144Z,12.25
2023-04-26T04:07:36.494Z,12.05
2023-04-26T04:10:10.747Z,12.01
2023-04-26T04:12:44.720Z,12.03
2023-04-26T04:15:17.486Z,12.04
2023-04-26T04:17:52.086Z,12.03
2023-04-26T04:20:25.368Z,12.04
2023-04-26T04:22:59.270Z,12.11
2023-04-26T04:25:31.641Z,12.14
2023-04-26T04:28:05.655Z,12.15
2023-04-26T04:30:38.652Z,12.19
2023-04-26T04:33:10.948Z,12.21
2023-04-26T04:35:45.086Z,12.25
2023-04-26T04:38:17.572Z,12.27
2023-04-26T04:40:50.584Z,12.29
2023-04-26T04:43:23.624Z,12.32
2023-04-26T04:45:56.316Z,12.35
2023-04-26T04:48:29.084Z,12.41
2023-04-26T04:51:02.792Z,12.48
2023-04-26T04:53:35.268Z,12.57
2023-04-26T04:56:07.927Z,12.62
2023-04-26T04:58:40.908Z,12.69
2023-04-26T05:01:13.755Z,12.74
2023-04-26T05:03:50.875Z,12.83
2023-04-26T05:06:24.497Z,12.97
2023-04-26T05:09:00.133Z,13.07
2023-04-26T05:11:33.214Z,13.18
2023-04-26T05:14:06.350Z,13.27
2023-04-26T05:16:38.818Z,13.35
2023-04-26T05:19:12.005Z,13.39
2023-04-26T05:21:44.274Z,13.39
2023-04-26T05:24:16.485Z,13.42
2023-04-26T05:26:49.155Z,13.42
2023-04-26T05:29:39.650Z,13.44
2023-04-26T05:32:13.948Z,13.45
2023-04-26T05:34:47.887Z,13.45
2023-04-26T05:37:21.632Z,13.43
2023-04-26T05:39:54.271Z,13.41
2023-04-26T05:42:26.402Z,13.43
2023-04-26T05:45:01.821Z,13.45
2023-04-26T05:47:34.820Z,13.48
2023-04-26T05:50:08.500Z,13.51
2023-04-26T05:52:40.737Z,13.53
2023-04-26T05:55:13.777Z,13.51
2023-04-26T05:57:46.119Z,13.52
2023-04-26T06:00:20.363Z,13.57
2023-04-26T06:02:53.151Z,13.59
2023-04-26T06:05:26.002Z,13.61
2023-04-26T06:07:58.690Z,13.57
2023-04-26T06:10:31.073Z,13.52
2023-04-26T06:13:04.208Z,13.45
2023-04-26T06:15:38.428Z,13.41
2023-04-26T06:18:10.641Z,13.41
2023-04-26T06:20:43.269Z,13.43
2023-04-26T06:23:18.080Z,13.50
2023-04-26T06:25:51.246Z,13.55
2023-04-26T06:28:23.507Z,13.56
2023-04-26T06:30:55.679Z,13.58
2023-04-26T06:33:28.756Z,13.53
2023-04-26T06:36:01.124Z,13.48
2023-04-26T06:38:33.486Z,13.44
2023-04-26T06:41:06.279Z,13.39
2023-04-26T06:43:38.928Z,13.36
2023-04-26T06:46:13.200Z,13.41
2023-04-26T06:48:46.667Z,13.52
2023-04-26T06:51:19.216Z,13.46
2023-04-26T06:53:52.988Z,13.47
2023-04-26T06:56:25.926Z,13.57
2023-04-26T06:59:03.672Z,13.66
2023-04-26T07:01:36.847Z,13.65
2023-04-26T07:04:11.263Z,13.67
2023-04-26T07:06:44.191Z,13.67
2023-04-26T07:09:16.322Z,13.70
2023-04-26T07:11:48.659Z,13.76
2023-04-26T07:14:20.797Z,13.81
2023-04-26T07:16:52.961Z,13.83
2023-04-26T07:19:25.508Z,13.83
2023-04-26T07:21:57.874Z,13.84
2023-04-26T07:24:30.252Z,13.84
2023-04-26T07:27:02.483Z,13.85
2023-04-26T07:29:34.654Z,13.83
2023-04-26T07:32:07.387Z,13.87
2023-04-26T07:34:39.792Z,13.92
2023-04-26T07:37:12.362Z,13.98
2023-04-26T07:39:44.774Z,14.06
2023-04-26T07:42:17.170Z,14.19
2023-04-26T07:44:50.913Z,14.32
2023-04-26T07:47:23.186Z,14.43
2023-04-26T07:49:56.213Z,14.52
2023-04-26T07:52:28.400Z,14.57
2023-04-26T07:55:00.991Z,14.69
2023-04-26T07:57:34.011Z,14.75
2023-04-26T08:00:09.164Z,14.79
2023-04-26T08:02:45.190Z,14.84
2023-04-26T08:05:18.217Z,14.95
2023-04-26T08:07:50.658Z,15.06
2023-04-26T08:10:22.774Z,15.15
2023-04-26T08:12:57.421Z,15.26
2023-04-26T08:15:30.817Z,15.27
2023-04-26T08:18:03.318Z,15.36
2023-04-26T08:20:35.456Z,15.40
2023-04-26T08:23:07.611Z,15.64
2023-04-26T08:25:39.664Z,15.83
2023-04-26T08:28:13.400Z,15.89
2023-04-26T08:30:45.848Z,15.97
2023-04-26T08:33:19.956Z,15.85
2023-04-26T08:35:52.617Z,15.69
2023-04-26T08:38:24.998Z,15.68
2023-04-26T08:40:59.663Z,15.40
2023-04-26T08:43:32.367Z,15.40
2023-04-26T08:46:07.526Z,15.29
2023-04-26T08:48:39.990Z,15.29
2023-04-26T08:51:14.133Z,15.30
2023-04-26T08:53:46.578Z,15.30
2023-04-26T08:56:19.321Z,15.44
2023-04-26T08:58:52.309Z,15.65
2023-04-26T09:01:26.463Z,15.81
2023-04-26T09:04:00.534Z,15.81
2023-04-26T09:06:34.861Z,15.90
2023-04-26T09:09:10.030Z,15.94
2023-04-26T09:12:03.332Z,16.03
2023-04-26T09:14:36.122Z,16.05
2023-04-26T09:17:09.706Z,15.99
2023-04-26T09:19:45.706Z,15.92
2023-04-26T09:22:31.971Z,15.86
2023-04-26T09:25:07.588Z,15.89
2023-04-26T09:27:44.444Z,15.96
2023-04-26T09:30:20.848Z,15.89
2023-04-26T09:33:04.960Z,16.04
2023-04-26T09:35:42.253Z,16.04
2023-04-26T09:38:16.368Z,16.12
2023-04-26T09:40:50.493Z,16.16
2023-04-26T09:43:23.366Z,16.17
2023-04-26T09:45:57.416Z,16.07
2023-04-26T09:48:32.264Z,16.07
2023-04-26T09:51:12.511Z,16.02
2023-04-26T09:53:50.186Z,15.93
2023-04-26T09:56:22.540Z,15.90
2023-04-26T09:59:01.423Z,15.83
2023-04-26T10:01:35.190Z,15.80
2023-04-26T10:04:08.856Z,15.80
2023-04-26T10:06:41.302Z,15.88
2023-04-26T10:09:14.142Z,15.88
2023-04-26T10:11:46.190Z,15.98
2023-04-26T10:14:18.173Z,16.02
2023-04-26T10:16:51.015Z,16.11
2023-04-26T10:19:24.597Z,16.37
2023-04-26T10:21:59.644Z,16.37
2023-04-26T10:24:31.796Z,16.58
2023-04-26T10:27:05.492Z,16.62
2023-04-26T10:29:57.107Z,16.56
2023-04-26T10:32:29.257Z,16.53
2023-04-26T10:35:15.079Z,16.57
2023-04-26T10:38:05.987Z,16.62
2023-04-26T10:40:42.083Z,16.54
2023-04-26T10:43:18.328Z,16.26
2023-04-26T10:45:51.462Z,16.07
2023-04-26T10:48:25.918Z,15.88
2023-04-26T10:51:08.284Z,15.88
2023-04-26T10:53:52.518Z,16.08
2023-04-26T10:56:31.038Z,16.27
2023-04-26T10:59:33.214Z,16.46
2023-04-26T11:01:48.664Z,16.57
2023-04-26T11:04:21.469Z,16.73
2023-04-26T11:06:54.788Z,17.16
2023-04-26T11:09:41.547Z,17.64
2023-04-26T11:12:16.647Z,18.05
2023-04-26T11:14:49.682Z,18.49
2023-04-26T11:17:22.400Z,18.89
2023-04-26T11:19:56.680Z,19.25
2023-04-26T11:22:30.440Z,19.65
2023-04-26T11:25:02.913Z,19.87
2023-04-26T11:27:34.823Z,20.25
2023-04-26T11:30:08.436Z,20.40
2023-04-26T11:32:40.975Z,20.56
2023-04-26T11:35:13.764Z,20.48
2023-04-26T11:37:49.103Z,20.29
2023-04-26T11:40:21.948Z,20.35
2023-04-26T11:42:55.010Z,20.49
2023-04-26T11:45:27.323Z,20.91
2023-04-26T11:48:00.068Z,20.91
2023-04-26T11:50:34.921Z,20.79
2023-04-26T11:53:08.868Z,20.61
2023-04-26T11:55:42.227Z,20.58
2023-04-26T11:58:15.793Z,20.59
2023-04-26T12:01:05.764Z,20.53
2023-04-26T12:03:38.451Z,20.24
2023-04-26T12:06:11.172Z,19.78
2023-04-26T12:08:43.416Z,19.28
2023-04-26T12:11:18.164Z,18.81
2023-04-26T12:13:51.048Z,18.34
2023-04-26T12:16:26.662Z,18.13
2023-04-26T12:18:58.874Z,18.08
2023-04-26T12:21:31.231Z,18.18
2023-04-26T12:24:03.594Z,18.13
2023-04-26T12:26:45.938Z,17.97
2023-04-26T12:29:18.411Z,17.77
2023-04-26T12:31:50.920Z,17.80
2023-04-26T12:34:23.201Z,17.92
2023-04-26T12:36:55.980Z,18.55
2023-04-26T12:39:28.580Z,20.05
2023-04-26T12:42:00.688Z,21.25
2023-04-26T12:44:33.051Z,24.28
2023-04-26T12:47:05.528Z,27.65
2023-04-26T12:49:37.975Z,29.82
2023-04-26T12:52:10.393Z,30.00
2023-04-26T12:54:42.953Z,30.40
2023-04-26T12:57:15.796Z,31.28
2023-04-26T12:59:48.484Z,30.59
2023-04-26T13:02:20.572Z,30.17
2023-04-26T13:04:52.990Z,30.91
2023-04-26T13:07:25.441Z,32.33
2023-04-26T13:09:58.164Z,32.89
2023-04-26T13:12:30.474Z,33.53
2023-04-26T13:15:04.122Z,34.45
2023-04-26T13:17:38.591Z,34.95
2023-04-26T13:20:11.518Z,35.31
2023-04-26T13:22:43.904Z,36.51
2023-04-26T13:25:17.508Z,37.74
2023-04-26T13:27:49.586Z,37.78
2023-04-26T13:30:21.935Z,37.65
2023-04-26T13:32:54.106Z,37.90
2023-04-26T13:35:26.566Z,39.07
2023-04-26T13:37:58.839Z,40.26
2023-04-26T13:40:31.294Z,40.97
2023-04-26T13:43:04.184Z,40.39
2023-04-26T13:45:36.403Z,39.75
2023-04-26T13:48:08.728Z,38.88
2023-04-26T13:50:41.030Z,37.43
2023-04-26T13:53:13.421Z,36.94
2023-04-26T13:55:45.825Z,36.80
2023-04-26T13:58:18.560Z,36.24
2023-04-26T14:00:51.047Z,36.55
2023-04-26T14:03:23.494Z,37.08
2023-04-26T14:05:56.687Z,37.45
2023-04-26T14:08:29.015Z,37.80
2023-04-26T14:11:01.288Z,38.07
2023-04-26T14:13:33.728Z,38.08
2023-04-26T14:16:06.714Z,38.46
2023-04-26T14:18:40.982Z,38.59
2023-04-26T14:21:13.751Z,38.68
2023-04-26T14:23:46.235Z,38.69
2023-04-26T14:26:18.476Z,38.92
2023-04-26T14:28:50.815Z,38.34
2023-04-26T14:31:24.661Z,38.14
2023-04-26T14:33:58.917Z,38.04
2023-04-26T14:36:30.602Z,37.79
2023-04-26T14:39:02.499Z,38.76
2023-04-26T14:41:35.196Z,36.36
2023-04-26T14:44:07.440Z,35.56
2023-04-26T14:46:39.685Z,34.92
2023-04-26T14:49:12.076Z,34.63
2023-04-26T14:51:44.241Z,33.85
2023-04-26T14:54:16.610Z,33.61
2023-04-26T14:56:49.648Z,33.68
2023-04-26T14:59:22.678Z,32.72
2023-04-26T15:01:55.006Z,31.12
2023-04-26T15:04:27.422Z,29.40
2023-04-26T15:07:00.118Z,27.78
2023-04-26T15:09:32.676Z,26.42
2023-04-26T15:12:05.125Z,25.22
2023-04-26T15:14:37.394Z,24.22
2023-04-26T15:17:09.631Z,23.27
2023-04-26T15:19:42.113Z,22.55
2023-04-26T15:22:14.381Z,21.93
2023-04-26T15:24:46.635Z,21.44
2023-04-26T15:27:18.751Z,21.10
2023-04-26T15:29:51.137Z,20.74
2023-04-26T15:32:23.474Z,20.44
2023-04-26T15:34:56.079Z,20.11
2023-04-26T15:37:28.254Z,19.89
2023-04-26T15:40:00.456Z,19.68
2023-04-26T15:42:33.535Z,19.49
2023-04-26T15:45:07.053Z,19.30
2023-04-26T15:47:39.821Z,19.12
2023-04-26T15:50:12.699Z,18.98
2023-04-26T15:52:46.537Z,18.86
2023-04-26T15:55:19.510Z,18.78
2023-04-26T15:57:52.397Z,18.71
2023-04-26T16:00:27.039Z,18.65
2023-04-26T16:02:59.509Z,18.61
2023-04-26T16:05:32.258Z,18.62
2023-04-26T16:08:05.793Z,18.47
2023-04-26T16:10:38.556Z,18.35
2023-04-26T16:13:10.766Z,18.22
2023-04-26T16:15:43.587Z,18.14
2023-04-26T16:18:15.662Z,18.06
2023-04-26T16:20:51.246Z,18.01
2023-04-26T16:23:23.760Z,17.90
2023-04-26T16:25:57.228Z,17.72
2023-04-26T16:28:29.329Z,17.56
2023-04-26T16:31:01.664Z,17.45
2023-04-26T16:33:34.435Z,17.34
2023-04-26T16:36:06.928Z,17.24
2023-04-26T16:38:39.146Z,17.21
2023-04-26T16:41:11.460Z,17.12
2023-04-26T16:43:43.703Z,17.03
2023-04-26T16:46:16.056Z,17.03
2023-04-26T16:48:49.992Z,16.91
2023-04-26T16:51:22.632Z,16.87
2023-04-26T16:53:56.354Z,16.84
2023-04-26T16:56:28.497Z,16.79
2023-04-26T16:59:00.569Z,16.75
2023-04-26T17:01:33.092Z,16.73
2023-04-26T17:04:05.672Z,16.73
2023-04-26T17:06:38.115Z,16.68
2023-04-26T17:09:10.183Z,16.60
2023-04-26T17:11:44.316Z,16.54
2023-04-26T17:14:16.708Z,16.37
2023-04-26T17:16:49.418Z,16.37
2023-04-26T17:19:22.002Z,16.27
2023-04-26T17:21:54.976Z,16.23
2023-04-26T17:24:27.256Z,16.14
2023-04-26T17:26:59.369Z,16.16
2023-04-26T17:29:31.654Z,16.02
2023-04-26T17:32:03.833Z,15.79
2023-04-26T17:34:37.721Z,15.79
2023-04-26T17:37:09.790Z,15.72
2023-04-26T17:39:42.226Z,15.69
2023-04-26T17:42:14.419Z,15.60
2023-04-26T17:44:46.733Z,15.57
2023-04-26T17:47:19.079Z,15.54
2023-04-26T17:49:51.156Z,15.50
2023-04-26T17:52:23.271Z,15.40
2023-04-26T17:54:55.868Z,15.40
2023-04-26T17:57:27.966Z,15.38
2023-04-26T18:00:00.375Z,15.27
2023-04-26T18:02:34.199Z,15.21
2023-04-26T18:05:08.690Z,15.19
2023-04-26T18:07:40.971Z,15.18
2023-04-26T18:10:13.133Z,15.10
2023-04-26T18:12:45.322Z,15.06
2023-04-26T18:15:18.777Z,15.06
2023-04-26T18:17:51.666Z,14.92
2023-04-26T18:20:24.079Z,15.07
2023-04-26T18:22:56.095Z,15.04
2023-04-26T18:25:28.292Z,15.02
2023-04-26T18:28:00.989Z,14.91
2023-04-26T18:30:33.167Z,14.83
2023-04-26T18:33:05.527Z,14.72
2023-04-26T18:35:37.809Z,14.69
2023-04-26T18:38:10.241Z,14.65
2023-04-26T18:40:46.221Z,14.62
2023-04-26T18:43:18.583Z,14.60
2023-04-26T18:45:52.693Z,14.57
2023-04-26T18:48:25.007Z,14.61
2023-04-26T18:50:57.501Z,14.58
2023-04-26T18:53:29.653Z,14.54
2023-04-26T18:56:02.213Z,14.47
2023-04-26T18:58:43.309Z,14.47
2023-04-26T19:01:15.624Z,14.39
2023-04-26T19:03:48.955Z,14.37
2023-04-26T19:06:21.685Z,14.31
2023-04-26T19:08:53.991Z,14.26
2023-04-26T19:11:26.320Z,14.19
2023-04-26T19:13:58.401Z,14.11
2023-04-26T19:16:30.952Z,14.09
2023-04-26T19:19:03.399Z,14.05
2023-04-26T19:21:36.705Z,14.07
2023-04-26T19:24:09.066Z,14.12
2023-04-26T19:26:42.238Z,14.11
2023-04-26T19:29:14.742Z,14.07
2023-04-26T19:31:46.942Z,14.10
2023-04-26T19:34:19.023Z,14.08
2023-04-26T19:36:51.345Z,14.07
2023-04-26T19:39:23.849Z,14.04
2023-04-26T19:41:56.410Z,13.99
2023-04-26T19:44:28.364Z,13.93
2023-04-26T19:47:00.807Z,13.89
2023-04-26T19:49:33.291Z,13.89
2023-04-26T19:52:05.572Z,13.85
2023-04-26T19:54:37.602Z,13.80
2023-04-26T19:57:09.651Z,13.67
2023-04-26T19:59:41.652Z,13.64
2023-04-26T20:02:13.879Z,13.58
2023-04-26T20:04:46.126Z,13.53
2023-04-26T20:07:18.170Z,13.52
2023-04-26T20:09:50.232Z,13.44
2023-04-26T20:12:22.297Z,13.43
2023-04-26T20:14:54.370Z,13.39
2023-04-26T20:17:26.445Z,13.39
2023-04-26T20:19:58.652Z,13.35
2023-04-26T20:22:31.075Z,13.35
2023-04-26T20:25:04.252Z,13.31
2023-04-26T20:27:36.189Z,13.23
2023-04-26T20:30:09.464Z,13.17
2023-04-26T20:32:41.835Z,13.12
2023-04-26T20:35:14.206Z,13.05
2023-04-26T20:37:46.458Z,12.98
2023-04-26T20:40:18.868Z,12.94
2023-04-26T20:42:51.474Z,12.86
2023-04-26T20:45:24.000Z,12.83
2023-04-26T20:47:56.172Z,12.78
2023-04-26T20:50:28.372Z,12.74
2023-04-26T20:53:00.682Z,12.65
2023-04-26T20:55:32.844Z,12.64
2023-04-26T20:58:04.825Z,12.64
2023-04-26T21:00:37.143Z,12.61
2023-04-26T21:03:09.499Z,12.56
2023-04-26T21:05:41.920Z,12.59
2023-04-26T21:08:14.139Z,12.57
2023-04-26T21:10:46.652Z,12.49
2023-04-26T21:13:18.978Z,12.45
2023-04-26T21:15:51.296Z,12.40
2023-04-26T21:18:24.034Z,12.46
2023-04-26T21:20:57.023Z,12.45
2023-04-26T21:23:29.105Z,12.42
2023-04-26T21:26:01.096Z,12.46
2023-04-26T21:28:33.407Z,12.43
2023-04-26T21:31:06.640Z,12.40
2023-04-26T21:33:38.842Z,12.37
2023-04-26T21:36:11.356Z,12.46
2023-04-26T21:38:43.348Z,12.47
2023-04-26T21:41:15.423Z,12.52
2023-04-26T21:43:47.418Z,12.52
2023-04-26T21:46:20.065Z,12.53
2023-04-26T21:48:52.296Z,12.50
2023-04-26T21:51:24.659Z,12.47
2023-04-26T21:53:56.658Z,12.44
2023-04-26T21:56:28.754Z,12.41
2023-04-26T21:59:02.601Z,12.37
2023-04-26T22:01:35.003Z,12.29
2023-04-26T22:04:07.404Z,12.30
2023-04-26T22:06:39.602Z,12.24
2023-04-26T22:09:11.979Z,12.29
2023-04-26T22:11:44.359Z,12.27
2023-04-26T22:14:16.560Z,12.26
2023-04-26T22:16:48.917Z,12.22
2023-04-26T22:19:21.206Z,12.17
2023-04-26T22:21:56.064Z,12.26
2023-04-26T22:24:27.142Z,12.21
2023-04-26T22:26:59.477Z,12.14
2023-04-26T22:29:32.071Z,12.11
2023-04-26T22:32:04.114Z,12.07
2023-04-26T22:34:36.690Z,12.02
2023-04-26T22:37:20.292Z,11.96
2023-04-26T22:39:42.663Z,11.95
2023-04-26T22:42:14.853Z,11.98
2023-04-26T22:44:46.986Z,11.95
2023-04-26T22:47:19.205Z,11.90
2023-04-26T22:49:51.404Z,11.91
2023-04-26T22:52:31.565Z,11.93
2023-04-26T22:54:57.314Z,11.98
2023-04-26T22:57:31.290Z,12.09
2023-04-26T23:00:04.673Z,12.13
2023-04-26T23:02:37.136Z,12.12
2023-04-26T23:05:13.094Z,12.06
2023-04-26T23:07:45.701Z,12.03
2023-04-26T23:10:17.915Z,11.99
2023-04-26T23:12:51.076Z,11.98
2023-04-26T23:15:23.834Z,12.01
2023-04-26T23:17:56.282Z,12.02
2023-04-26T23:20:29.042Z,12.05
2023-04-26T23:23:01.034Z,12.08
2023-04-26T23:25:33.314Z,12.06
2023-04-26T23:28:05.237Z,12.00
2023-04-26T23:30:37.342Z,11.95
2023-04-26T23:33:09.874Z,11.91
2023-04-26T23:35:43.009Z,11.79
2023-04-26T23:38:15.353Z,11.72
2023-04-26T23:40:47.796Z,11.62
2023-04-26T23:43:19.850Z,11.57
2023-04-26T23:45:52.067Z,11.52
2023-04-26T23:48:24.307Z,11.54
2023-04-26T23:50:56.402Z,11.56
2023-04-26T23:53:28.702Z,11.62
2023-04-26T23:56:00.870Z,11.70
2023-04-26T23:58:33.051Z,11.71
